sensor_id;sensor_type;location;lat;lon;timestamp;temperature;humidity
31263;DHT22;17892;52.080;9.006;2022-09-09T00:01:41;16.10;94.50
31263;DHT22;17892;52.080;9.006;2022-09-09T00:04:29;16.10;94.70
31263;DHT22;17892;52.080;9.006;2022-09-09T00:09:59;16.20;94.60
31263;DHT22;17892;52.080;9.006;2022-09-09T00:15:19;16.10;94.50
31263;DHT22;17892;52.080;9.006;2022-09-09T00:20:58;16.10;94.50
31263;DHT22;17892;52.080;9.006;2022-09-09T00:23:44;16.00;94.50
31263;DHT22;17892;52.080;9.006;2022-09-09T00:29:37;16.00;94.70
31263;DHT22;17892;52.080;9.006;2022-09-09T00:32:09;16.00;94.70
31263;DHT22;17892;52.080;9.006;2022-09-09T00:34:51;16.00;94.70
31263;DHT22;17892;52.080;9.006;2022-09-09T00:37:19;16.00;94.70
31263;DHT22;17892;52.080;9.006;2022-09-09T00:39:47;15.90;94.70
31263;DHT22;17892;52.080;9.006;2022-09-09T00:45:16;15.90;94.70
31263;DHT22;17892;52.080;9.006;2022-09-09T00:47:49;16.00;95.00
31263;DHT22;17892;52.080;9.006;2022-09-09T00:53:19;15.90;94.70
31263;DHT22;17892;52.080;9.006;2022-09-09T00:56:29;15.90;94.80
31263;DHT22;17892;52.080;9.006;2022-09-09T00:59:03;15.80;94.60
31263;DHT22;17892;52.080;9.006;2022-09-09T01:01:33;15.80;94.80
31263;DHT22;17892;52.080;9.006;2022-09-09T01:03:58;15.80;94.70
31263;DHT22;17892;52.080;9.006;2022-09-09T01:06:34;15.80;94.80
31263;DHT22;17892;52.080;9.006;2022-09-09T01:14:45;15.80;95.40
31263;DHT22;17892;52.080;9.006;2022-09-09T01:17:34;15.80;95.30
31263;DHT22;17892;52.080;9.006;2022-09-09T01:20:34;15.90;95.40
31263;DHT22;17892;52.080;9.006;2022-09-09T01:23:48;16.00;95.50
31263;DHT22;17892;52.080;9.006;2022-09-09T01:26:37;16.00;95.50
31263;DHT22;17892;52.080;9.006;2022-09-09T01:29:16;16.00;95.20
31263;DHT22;17892;52.080;9.006;2022-09-09T01:35:13;16.10;95.30
31263;DHT22;17892;52.080;9.006;2022-09-09T01:37:47;16.10;95.30
31263;DHT22;17892;52.080;9.006;2022-09-09T01:40:12;16.20;95.30
31263;DHT22;17892;52.080;9.006;2022-09-09T01:42:38;16.20;95.30
31263;DHT22;17892;52.080;9.006;2022-09-09T01:45:04;16.20;95.20
31263;DHT22;17892;52.080;9.006;2022-09-09T01:47:31;16.20;95.20
31263;DHT22;17892;52.080;9.006;2022-09-09T01:49:57;16.30;95.10
31263;DHT22;17892;52.080;9.006;2022-09-09T01:52:23;16.30;95.10
31263;DHT22;17892;52.080;9.006;2022-09-09T01:54:49;16.30;95.00
31263;DHT22;17892;52.080;9.006;2022-09-09T01:57:21;16.30;95.10
31263;DHT22;17892;52.080;9.006;2022-09-09T02:02:57;16.30;95.00
31263;DHT22;17892;52.080;9.006;2022-09-09T02:05:41;16.30;95.40
31263;DHT22;17892;52.080;9.006;2022-09-09T02:08:21;16.20;94.90
31263;DHT22;17892;52.080;9.006;2022-09-09T02:11:05;16.20;94.80
31263;DHT22;17892;52.080;9.006;2022-09-09T02:13:44;16.20;94.80
31263;DHT22;17892;52.080;9.006;2022-09-09T02:16:22;16.10;94.80
31263;DHT22;17892;52.080;9.006;2022-09-09T02:19:00;16.10;94.80
31263;DHT22;17892;52.080;9.006;2022-09-09T02:21:31;16.10;95.00
31263;DHT22;17892;52.080;9.006;2022-09-09T02:24:03;16.00;95.10
31263;DHT22;17892;52.080;9.006;2022-09-09T02:26:32;16.00;95.20
31263;DHT22;17892;52.080;9.006;2022-09-09T02:29:03;15.90;95.20
31263;DHT22;17892;52.080;9.006;2022-09-09T02:31:44;16.00;95.40
31263;DHT22;17892;52.080;9.006;2022-09-09T02:34:11;16.00;95.40
31263;DHT22;17892;52.080;9.006;2022-09-09T02:36:40;15.90;95.30
31263;DHT22;17892;52.080;9.006;2022-09-09T02:39:08;15.90;95.40
31263;DHT22;17892;52.080;9.006;2022-09-09T02:41:38;15.90;95.40
31263;DHT22;17892;52.080;9.006;2022-09-09T02:44:13;16.00;95.40
31263;DHT22;17892;52.080;9.006;2022-09-09T02:55:10;15.90;95.30
31263;DHT22;17892;52.080;9.006;2022-09-09T02:57:42;15.90;95.30
31263;DHT22;17892;52.080;9.006;2022-09-09T03:00:12;15.80;95.30
31263;DHT22;17892;52.080;9.006;2022-09-09T03:02:39;15.80;95.30
31263;DHT22;17892;52.080;9.006;2022-09-09T03:05:06;15.80;95.30
31263;DHT22;17892;52.080;9.006;2022-09-09T03:07:32;15.80;95.40
31263;DHT22;17892;52.080;9.006;2022-09-09T03:09:57;15.80;95.40
31263;DHT22;17892;52.080;9.006;2022-09-09T03:12:23;15.70;95.50
31263;DHT22;17892;52.080;9.006;2022-09-09T03:14:49;15.70;95.70
31263;DHT22;17892;52.080;9.006;2022-09-09T03:17:15;15.70;95.80
31263;DHT22;17892;52.080;9.006;2022-09-09T03:19:41;15.70;96.00
31263;DHT22;17892;52.080;9.006;2022-09-09T03:22:09;15.70;96.10
31263;DHT22;17892;52.080;9.006;2022-09-09T03:24:35;15.70;96.30
31263;DHT22;17892;52.080;9.006;2022-09-09T03:27:01;15.80;96.40
31263;DHT22;17892;52.080;9.006;2022-09-09T03:29:26;15.80;96.50
31263;DHT22;17892;52.080;9.006;2022-09-09T03:31:53;15.80;96.50
31263;DHT22;17892;52.080;9.006;2022-09-09T03:34:18;15.90;96.50
31263;DHT22;17892;52.080;9.006;2022-09-09T03:36:44;15.90;96.50
31263;DHT22;17892;52.080;9.006;2022-09-09T03:39:10;16.00;96.50
31263;DHT22;17892;52.080;9.006;2022-09-09T03:41:35;16.00;96.50
31263;DHT22;17892;52.080;9.006;2022-09-09T03:44:02;16.00;96.40
31263;DHT22;17892;52.080;9.006;2022-09-09T03:46:28;16.10;96.40
31263;DHT22;17892;52.080;9.006;2022-09-09T03:48:54;16.10;96.30
31263;DHT22;17892;52.080;9.006;2022-09-09T03:51:19;16.10;96.30
31263;DHT22;17892;52.080;9.006;2022-09-09T03:53:47;16.20;96.30
31263;DHT22;17892;52.080;9.006;2022-09-09T03:56:13;16.20;96.30
31263;DHT22;17892;52.080;9.006;2022-09-09T03:58:39;16.20;96.30
31263;DHT22;17892;52.080;9.006;2022-09-09T04:01:09;16.20;96.30
31263;DHT22;17892;52.080;9.006;2022-09-09T04:03:39;16.30;96.30
31263;DHT22;17892;52.080;9.006;2022-09-09T04:06:06;16.30;96.20
31263;DHT22;17892;52.080;9.006;2022-09-09T04:08:35;16.30;96.10
31263;DHT22;17892;52.080;9.006;2022-09-09T04:11:02;16.30;96.10
31263;DHT22;17892;52.080;9.006;2022-09-09T04:13:32;16.30;96.10
31263;DHT22;17892;52.080;9.006;2022-09-09T04:16:00;16.30;96.10
31263;DHT22;17892;52.080;9.006;2022-09-09T04:18:27;16.30;96.10
31263;DHT22;17892;52.080;9.006;2022-09-09T04:20:54;16.30;96.10
31263;DHT22;17892;52.080;9.006;2022-09-09T04:23:23;16.30;96.20
31263;DHT22;17892;52.080;9.006;2022-09-09T04:25:52;16.30;96.20
31263;DHT22;17892;52.080;9.006;2022-09-09T04:28:21;16.30;96.30
31263;DHT22;17892;52.080;9.006;2022-09-09T04:30:49;16.30;96.30
31263;DHT22;17892;52.080;9.006;2022-09-09T04:33:15;16.30;96.20
31263;DHT22;17892;52.080;9.006;2022-09-09T04:35:47;16.30;96.20
31263;DHT22;17892;52.080;9.006;2022-09-09T04:38:15;16.30;96.20
31263;DHT22;17892;52.080;9.006;2022-09-09T04:40:46;16.30;96.10
31263;DHT22;17892;52.080;9.006;2022-09-09T04:43:12;16.30;96.20
31263;DHT22;17892;52.080;9.006;2022-09-09T04:45:39;16.30;96.10
31263;DHT22;17892;52.080;9.006;2022-09-09T04:48:06;16.30;96.20
31263;DHT22;17892;52.080;9.006;2022-09-09T04:50:32;16.30;96.20
31263;DHT22;17892;52.080;9.006;2022-09-09T04:53:03;16.30;96.30
31263;DHT22;17892;52.080;9.006;2022-09-09T04:55:30;16.30;96.40
31263;DHT22;17892;52.080;9.006;2022-09-09T04:57:56;16.30;96.30
31263;DHT22;17892;52.080;9.006;2022-09-09T05:00:23;16.40;96.40
31263;DHT22;17892;52.080;9.006;2022-09-09T05:02:50;16.40;96.40
31263;DHT22;17892;52.080;9.006;2022-09-09T05:05:16;16.40;96.30
31263;DHT22;17892;52.080;9.006;2022-09-09T05:07:42;16.40;96.30
31263;DHT22;17892;52.080;9.006;2022-09-09T05:10:08;16.40;96.30
31263;DHT22;17892;52.080;9.006;2022-09-09T05:12:35;16.50;96.40
31263;DHT22;17892;52.080;9.006;2022-09-09T05:15:00;16.50;96.40
31263;DHT22;17892;52.080;9.006;2022-09-09T05:17:26;16.50;96.30
31263;DHT22;17892;52.080;9.006;2022-09-09T05:19:53;16.50;96.30
31263;DHT22;17892;52.080;9.006;2022-09-09T05:22:21;16.50;96.20
31263;DHT22;17892;52.080;9.006;2022-09-09T05:24:49;16.50;96.20
31263;DHT22;17892;52.080;9.006;2022-09-09T05:27:19;16.50;96.20
31263;DHT22;17892;52.080;9.006;2022-09-09T05:29:45;16.40;96.20
31263;DHT22;17892;52.080;9.006;2022-09-09T05:32:11;16.40;96.20
31263;DHT22;17892;52.080;9.006;2022-09-09T05:34:39;16.40;96.20
31263;DHT22;17892;52.080;9.006;2022-09-09T05:37:04;16.40;96.30
31263;DHT22;17892;52.080;9.006;2022-09-09T05:39:30;16.30;96.30
31263;DHT22;17892;52.080;9.006;2022-09-09T05:41:56;16.30;96.40
31263;DHT22;17892;52.080;9.006;2022-09-09T05:44:22;16.30;96.50
31263;DHT22;17892;52.080;9.006;2022-09-09T05:46:50;16.30;96.60
31263;DHT22;17892;52.080;9.006;2022-09-09T05:49:15;16.30;96.60
31263;DHT22;17892;52.080;9.006;2022-09-09T05:51:41;16.30;96.70
31263;DHT22;17892;52.080;9.006;2022-09-09T05:54:08;16.40;96.80
31263;DHT22;17892;52.080;9.006;2022-09-09T05:56:34;16.40;96.80
31263;DHT22;17892;52.080;9.006;2022-09-09T05:59:00;16.40;96.80
31263;DHT22;17892;52.080;9.006;2022-09-09T06:01:31;16.40;96.80
31263;DHT22;17892;52.080;9.006;2022-09-09T06:03:58;16.40;97.00
31263;DHT22;17892;52.080;9.006;2022-09-09T06:06:30;16.50;97.20
31263;DHT22;17892;52.080;9.006;2022-09-09T06:08:58;16.60;97.40
31263;DHT22;17892;52.080;9.006;2022-09-09T06:11:29;16.60;97.30
31263;DHT22;17892;52.080;9.006;2022-09-09T06:14:01;16.70;97.40
31263;DHT22;17892;52.080;9.006;2022-09-09T06:16:29;16.90;97.50
31263;DHT22;17892;52.080;9.006;2022-09-09T06:18:56;17.00;97.70
31263;DHT22;17892;52.080;9.006;2022-09-09T06:21:30;17.10;97.80
31263;DHT22;17892;52.080;9.006;2022-09-09T06:23:58;17.30;97.90
31263;DHT22;17892;52.080;9.006;2022-09-09T06:26:26;17.40;97.80
31263;DHT22;17892;52.080;9.006;2022-09-09T06:28:55;17.60;97.70
31263;DHT22;17892;52.080;9.006;2022-09-09T06:31:24;17.70;97.60
31263;DHT22;17892;52.080;9.006;2022-09-09T06:33:52;17.90;97.30
31263;DHT22;17892;52.080;9.006;2022-09-09T06:36:25;17.90;97.00
31263;DHT22;17892;52.080;9.006;2022-09-09T06:38:52;18.10;96.80
31263;DHT22;17892;52.080;9.006;2022-09-09T06:41:19;18.10;96.60
31263;DHT22;17892;52.080;9.006;2022-09-09T06:43:46;18.10;96.50
31263;DHT22;17892;52.080;9.006;2022-09-09T06:46:18;18.10;96.40
31263;DHT22;17892;52.080;9.006;2022-09-09T06:48:45;18.20;96.20
31263;DHT22;17892;52.080;9.006;2022-09-09T06:51:17;18.20;96.20
31263;DHT22;17892;52.080;9.006;2022-09-09T06:53:45;18.20;96.20
31263;DHT22;17892;52.080;9.006;2022-09-09T06:56:44;18.30;96.30
31263;DHT22;17892;52.080;9.006;2022-09-09T06:59:11;18.30;95.90
31263;DHT22;17892;52.080;9.006;2022-09-09T07:01:42;18.30;96.10
31263;DHT22;17892;52.080;9.006;2022-09-09T07:04:12;18.40;96.10
31263;DHT22;17892;52.080;9.006;2022-09-09T07:06:41;18.40;96.20
31263;DHT22;17892;52.080;9.006;2022-09-09T07:09:11;18.40;96.20
31263;DHT22;17892;52.080;9.006;2022-09-09T07:11:41;18.50;96.30
31263;DHT22;17892;52.080;9.006;2022-09-09T07:14:11;18.50;96.30
31263;DHT22;17892;52.080;9.006;2022-09-09T07:16:44;18.60;96.20
31263;DHT22;17892;52.080;9.006;2022-09-09T07:19:11;18.70;96.20
31263;DHT22;17892;52.080;9.006;2022-09-09T07:21:38;18.70;96.20
31263;DHT22;17892;52.080;9.006;2022-09-09T07:24:05;18.70;96.10
31263;DHT22;17892;52.080;9.006;2022-09-09T07:26:33;18.80;96.00
31263;DHT22;17892;52.080;9.006;2022-09-09T07:28:58;18.80;96.00
31263;DHT22;17892;52.080;9.006;2022-09-09T07:31:30;18.90;96.00
31263;DHT22;17892;52.080;9.006;2022-09-09T07:33:57;18.90;95.80
31263;DHT22;17892;52.080;9.006;2022-09-09T07:36:36;18.90;95.90
31263;DHT22;17892;52.080;9.006;2022-09-09T07:39:07;19.00;95.70
31263;DHT22;17892;52.080;9.006;2022-09-09T07:41:37;19.00;95.90
31263;DHT22;17892;52.080;9.006;2022-09-09T07:44:19;19.10;96.00
31263;DHT22;17892;52.080;9.006;2022-09-09T07:46:47;19.20;96.00
31263;DHT22;17892;52.080;9.006;2022-09-09T07:49:14;19.30;96.00
31263;DHT22;17892;52.080;9.006;2022-09-09T07:51:42;19.40;96.10
31263;DHT22;17892;52.080;9.006;2022-09-09T07:54:12;19.40;96.00
31263;DHT22;17892;52.080;9.006;2022-09-09T07:56:39;19.60;96.10
31263;DHT22;17892;52.080;9.006;2022-09-09T07:59:07;19.60;95.90
31263;DHT22;17892;52.080;9.006;2022-09-09T08:01:35;19.70;95.90
31263;DHT22;17892;52.080;9.006;2022-09-09T08:04:09;19.80;95.70
31263;DHT22;17892;52.080;9.006;2022-09-09T08:06:46;19.90;95.60
31263;DHT22;17892;52.080;9.006;2022-09-09T08:09:14;20.10;95.70
31263;DHT22;17892;52.080;9.006;2022-09-09T08:11:41;20.10;95.50
31263;DHT22;17892;52.080;9.006;2022-09-09T08:14:08;20.20;95.50
31263;DHT22;17892;52.080;9.006;2022-09-09T08:16:38;20.20;95.30
31263;DHT22;17892;52.080;9.006;2022-09-09T08:19:05;20.30;95.10
31263;DHT22;17892;52.080;9.006;2022-09-09T08:21:33;20.40;95.30
31263;DHT22;17892;52.080;9.006;2022-09-09T08:24:03;20.40;95.30
31263;DHT22;17892;52.080;9.006;2022-09-09T08:26:35;20.50;95.10
31263;DHT22;17892;52.080;9.006;2022-09-09T08:29:13;20.70;95.60
31263;DHT22;17892;52.080;9.006;2022-09-09T08:34:09;20.90;95.00
31263;DHT22;17892;52.080;9.006;2022-09-09T08:36:37;21.00;95.00
31263;DHT22;17892;52.080;9.006;2022-09-09T08:39:05;21.00;94.70
31263;DHT22;17892;52.080;9.006;2022-09-09T08:58:26;23.20;94.00
31263;DHT22;17892;52.080;9.006;2022-09-09T09:04:03;24.00;92.60
31263;DHT22;17892;52.080;9.006;2022-09-09T09:12:40;25.20;94.70
31263;DHT22;17892;52.080;9.006;2022-09-09T09:15:24;25.70;93.40
31263;DHT22;17892;52.080;9.006;2022-09-09T09:17:51;25.90;90.30
31263;DHT22;17892;52.080;9.006;2022-09-09T09:20:23;26.10;91.10
31263;DHT22;17892;52.080;9.006;2022-09-09T09:22:59;26.10;89.70
31263;DHT22;17892;52.080;9.006;2022-09-09T09:25:38;26.10;88.30
31263;DHT22;17892;52.080;9.006;2022-09-09T09:31:00;26.20;84.70
31263;DHT22;17892;52.080;9.006;2022-09-09T09:33:41;26.30;82.90
31263;DHT22;17892;52.080;9.006;2022-09-09T09:36:12;26.30;84.50
31263;DHT22;17892;52.080;9.006;2022-09-09T09:38:52;26.30;85.00
31263;DHT22;17892;52.080;9.006;2022-09-09T09:41:40;26.20;79.60
31263;DHT22;17892;52.080;9.006;2022-09-09T09:44:27;26.10;78.10
31263;DHT22;17892;52.080;9.006;2022-09-09T09:47:18;26.00;79.70
31263;DHT22;17892;52.080;9.006;2022-09-09T09:49:59;25.90;81.00
31263;DHT22;17892;52.080;9.006;2022-09-09T09:52:28;25.90;82.70
31263;DHT22;17892;52.080;9.006;2022-09-09T09:54:56;26.00;84.30
31263;DHT22;17892;52.080;9.006;2022-09-09T09:57:27;26.00;83.30
31263;DHT22;17892;52.080;9.006;2022-09-09T10:00:24;26.00;81.20
31263;DHT22;17892;52.080;9.006;2022-09-09T10:02:50;26.00;80.10
31263;DHT22;17892;52.080;9.006;2022-09-09T10:05:23;26.00;80.30
31263;DHT22;17892;52.080;9.006;2022-09-09T10:13:15;26.30;79.40
31263;DHT22;17892;52.080;9.006;2022-09-09T10:17:13;26.50;81.50
31263;DHT22;17892;52.080;9.006;2022-09-09T10:19:35;26.80;78.60
31263;DHT22;17892;52.080;9.006;2022-09-09T10:22:21;26.90;78.10
31263;DHT22;17892;52.080;9.006;2022-09-09T10:28:09;26.70;74.70
31263;DHT22;17892;52.080;9.006;2022-09-09T10:34:11;26.00;69.80
31263;DHT22;17892;52.080;9.006;2022-09-09T10:36:24;25.30;69.00
31263;DHT22;17892;52.080;9.006;2022-09-09T10:39:04;24.40;70.40
31263;DHT22;17892;52.080;9.006;2022-09-09T10:47:46;22.30;80.60
31263;DHT22;17892;52.080;9.006;2022-09-09T10:50:35;22.00;84.40
31263;DHT22;17892;52.080;9.006;2022-09-09T10:56:21;21.90;84.40
31263;DHT22;17892;52.080;9.006;2022-09-09T10:58:50;21.90;84.40
31263;DHT22;17892;52.080;9.006;2022-09-09T11:01:26;21.80;84.90
31263;DHT22;17892;52.080;9.006;2022-09-09T11:04:09;21.80;85.60
31263;DHT22;17892;52.080;9.006;2022-09-09T11:06:49;21.80;86.90
31263;DHT22;17892;52.080;9.006;2022-09-09T11:09:24;21.90;87.10
31263;DHT22;17892;52.080;9.006;2022-09-09T11:11:57;22.10;89.20
31263;DHT22;17892;52.080;9.006;2022-09-09T11:14:34;22.30;89.30
31263;DHT22;17892;52.080;9.006;2022-09-09T11:17:08;22.60;88.80
31263;DHT22;17892;52.080;9.006;2022-09-09T11:19:39;22.80;88.60
31263;DHT22;17892;52.080;9.006;2022-09-09T11:22:27;23.00;89.20
31263;DHT22;17892;52.080;9.006;2022-09-09T11:30:36;23.70;85.90
31263;DHT22;17892;52.080;9.006;2022-09-09T11:36:38;23.90;84.80
31263;DHT22;17892;52.080;9.006;2022-09-09T11:42:12;24.00;87.10
31263;DHT22;17892;52.080;9.006;2022-09-09T11:44:48;24.10;85.50
31263;DHT22;17892;52.080;9.006;2022-09-09T11:47:22;24.30;86.60
31263;DHT22;17892;52.080;9.006;2022-09-09T11:50:22;24.50;84.60
31263;DHT22;17892;52.080;9.006;2022-09-09T11:53:18;24.60;79.60
31263;DHT22;17892;52.080;9.006;2022-09-09T11:56:06;24.70;80.60
31263;DHT22;17892;52.080;9.006;2022-09-09T11:58:38;24.80;81.00
31263;DHT22;17892;52.080;9.006;2022-09-09T12:01:29;24.80;82.70
31263;DHT22;17892;52.080;9.006;2022-09-09T12:06:59;25.00;81.10
31263;DHT22;17892;52.080;9.006;2022-09-09T12:09:47;25.30;83.00
31263;DHT22;17892;52.080;9.006;2022-09-09T12:12:28;25.40;80.00
31263;DHT22;17892;52.080;9.006;2022-09-09T12:17:43;25.70;80.80
31263;DHT22;17892;52.080;9.006;2022-09-09T12:20:15;25.90;81.80
31263;DHT22;17892;52.080;9.006;2022-09-09T12:23:06;26.10;80.10
31263;DHT22;17892;52.080;9.006;2022-09-09T12:26:05;26.20;78.40
31263;DHT22;17892;52.080;9.006;2022-09-09T12:34:40;25.90;71.90
31263;DHT22;17892;52.080;9.006;2022-09-09T12:40:06;25.30;72.70
31263;DHT22;17892;52.080;9.006;2022-09-09T12:42:44;25.00;73.70
31263;DHT22;17892;52.080;9.006;2022-09-09T12:45:19;24.80;74.40
31263;DHT22;17892;52.080;9.006;2022-09-09T12:48:04;24.60;74.70
31263;DHT22;17892;52.080;9.006;2022-09-09T12:50:37;24.50;75.40
31263;DHT22;17892;52.080;9.006;2022-09-09T12:53:11;24.40;75.10
31263;DHT22;17892;52.080;9.006;2022-09-09T12:55:53;24.30;75.30
31263;DHT22;17892;52.080;9.006;2022-09-09T12:58:26;24.30;75.80
31263;DHT22;17892;52.080;9.006;2022-09-09T13:00:56;24.20;76.00
31263;DHT22;17892;52.080;9.006;2022-09-09T13:03:23;24.20;76.00
31263;DHT22;17892;52.080;9.006;2022-09-09T13:05:51;24.20;76.40
31263;DHT22;17892;52.080;9.006;2022-09-09T13:08:17;24.30;76.50
31263;DHT22;17892;52.080;9.006;2022-09-09T13:10:50;24.40;77.90
31263;DHT22;17892;52.080;9.006;2022-09-09T13:13:33;24.60;77.10
31263;DHT22;17892;52.080;9.006;2022-09-09T13:16:03;24.90;79.20
31263;DHT22;17892;52.080;9.006;2022-09-09T13:18:35;25.40;78.60
31263;DHT22;17892;52.080;9.006;2022-09-09T13:21:03;26.00;80.80
31263;DHT22;17892;52.080;9.006;2022-09-09T13:23:32;26.50;81.00
31263;DHT22;17892;52.080;9.006;2022-09-09T13:26:03;27.10;79.90
31263;DHT22;17892;52.080;9.006;2022-09-09T13:28:44;27.70;75.00
31263;DHT22;17892;52.080;9.006;2022-09-09T13:31:29;28.20;73.20
31263;DHT22;17892;52.080;9.006;2022-09-09T13:33:55;28.60;69.70
31263;DHT22;17892;52.080;9.006;2022-09-09T13:36:33;28.90;70.10
31263;DHT22;17892;52.080;9.006;2022-09-09T13:39:01;29.10;65.60
31263;DHT22;17892;52.080;9.006;2022-09-09T13:41:33;29.20;64.90
31263;DHT22;17892;52.080;9.006;2022-09-09T13:44:03;29.10;61.10
31263;DHT22;17892;52.080;9.006;2022-09-09T13:49:21;28.90;61.90
31263;DHT22;17892;52.080;9.006;2022-09-09T13:51:51;28.80;59.10
31263;DHT22;17892;52.080;9.006;2022-09-09T13:54:20;28.50;58.60
31263;DHT22;17892;52.080;9.006;2022-09-09T13:56:46;28.20;58.10
31263;DHT22;17892;52.080;9.006;2022-09-09T13:59:18;27.90;57.80
31263;DHT22;17892;52.080;9.006;2022-09-09T14:01:49;27.50;57.80
31263;DHT22;17892;52.080;9.006;2022-09-09T14:04:18;27.10;57.90
31263;DHT22;17892;52.080;9.006;2022-09-09T14:06:46;26.70;58.60
31263;DHT22;17892;52.080;9.006;2022-09-09T14:09:14;26.40;59.00
31263;DHT22;17892;52.080;9.006;2022-09-09T14:11:42;26.10;60.20
31263;DHT22;17892;52.080;9.006;2022-09-09T14:14:08;25.70;60.80
31263;DHT22;17892;52.080;9.006;2022-09-09T14:16:34;25.30;63.10
31263;DHT22;17892;52.080;9.006;2022-09-09T14:19:01;25.00;63.50
31263;DHT22;17892;52.080;9.006;2022-09-09T14:21:27;24.90;65.90
31263;DHT22;17892;52.080;9.006;2022-09-09T14:23:53;24.80;65.50
31263;DHT22;17892;52.080;9.006;2022-09-09T14:26:20;24.80;67.70
31263;DHT22;17892;52.080;9.006;2022-09-09T14:28:47;25.00;69.40
31263;DHT22;17892;52.080;9.006;2022-09-09T14:31:13;25.20;70.00
31263;DHT22;17892;52.080;9.006;2022-09-09T14:33:40;25.60;70.60
31263;DHT22;17892;52.080;9.006;2022-09-09T14:36:06;26.00;70.70
31263;DHT22;17892;52.080;9.006;2022-09-09T14:38:37;26.40;69.50
31263;DHT22;17892;52.080;9.006;2022-09-09T14:41:06;26.70;67.30
31263;DHT22;17892;52.080;9.006;2022-09-09T14:43:32;27.00;67.80
31263;DHT22;17892;52.080;9.006;2022-09-09T14:46:07;27.20;67.60
31263;DHT22;17892;52.080;9.006;2022-09-09T14:48:35;27.50;65.60
31263;DHT22;17892;52.080;9.006;2022-09-09T14:51:12;27.80;64.70
31263;DHT22;17892;52.080;9.006;2022-09-09T14:53:40;28.00;62.90
31263;DHT22;17892;52.080;9.006;2022-09-09T14:56:06;28.30;64.90
31263;DHT22;17892;52.080;9.006;2022-09-09T14:58:34;28.50;62.70
31263;DHT22;17892;52.080;9.006;2022-09-09T15:01:05;28.60;60.90
31263;DHT22;17892;52.080;9.006;2022-09-09T15:03:38;28.50;58.60
31263;DHT22;17892;52.080;9.006;2022-09-09T15:06:09;28.40;58.50
31263;DHT22;17892;52.080;9.006;2022-09-09T15:08:38;28.10;58.00
31263;DHT22;17892;52.080;9.006;2022-09-09T15:11:06;27.80;58.10
31263;DHT22;17892;52.080;9.006;2022-09-09T15:13:36;27.60;59.20
31263;DHT22;17892;52.080;9.006;2022-09-09T15:16:12;27.50;61.00
31263;DHT22;17892;52.080;9.006;2022-09-09T15:18:40;27.60;61.00
31263;DHT22;17892;52.080;9.006;2022-09-09T15:21:27;27.80;62.40
31263;DHT22;17892;52.080;9.006;2022-09-09T15:23:54;28.00;60.60
31263;DHT22;17892;52.080;9.006;2022-09-09T15:26:21;28.00;59.40
31263;DHT22;17892;52.080;9.006;2022-09-09T15:28:47;27.90;57.90
31263;DHT22;17892;52.080;9.006;2022-09-09T15:31:28;27.60;56.80
31263;DHT22;17892;52.080;9.006;2022-09-09T15:34:06;27.30;56.30
31263;DHT22;17892;52.080;9.006;2022-09-09T15:36:37;26.90;56.70
31263;DHT22;17892;52.080;9.006;2022-09-09T15:39:07;26.60;57.20
31263;DHT22;17892;52.080;9.006;2022-09-09T15:41:35;26.20;57.70
31263;DHT22;17892;52.080;9.006;2022-09-09T15:44:01;25.90;58.30
31263;DHT22;17892;52.080;9.006;2022-09-09T15:49:18;25.50;59.00
31263;DHT22;17892;52.080;9.006;2022-09-09T15:51:47;25.30;59.30
31263;DHT22;17892;52.080;9.006;2022-09-09T15:54:18;25.10;59.60
31263;DHT22;17892;52.080;9.006;2022-09-09T15:56:52;24.90;59.90
31263;DHT22;17892;52.080;9.006;2022-09-09T15:59:21;24.80;60.10
31263;DHT22;17892;52.080;9.006;2022-09-09T16:01:48;24.70;60.50
31263;DHT22;17892;52.080;9.006;2022-09-09T16:04:17;24.60;60.70
31263;DHT22;17892;52.080;9.006;2022-09-09T16:06:51;24.60;60.50
31263;DHT22;17892;52.080;9.006;2022-09-09T16:09:18;24.60;60.70
31263;DHT22;17892;52.080;9.006;2022-09-09T16:11:45;24.60;61.00
31263;DHT22;17892;52.080;9.006;2022-09-09T16:14:12;24.60;60.90
31263;DHT22;17892;52.080;9.006;2022-09-09T16:16:38;24.60;61.10
31263;DHT22;17892;52.080;9.006;2022-09-09T16:19:06;24.60;61.50
31263;DHT22;17892;52.080;9.006;2022-09-09T16:21:40;24.60;61.30
31263;DHT22;17892;52.080;9.006;2022-09-09T16:24:09;24.60;61.20
31263;DHT22;17892;52.080;9.006;2022-09-09T16:26:39;24.50;61.10
31263;DHT22;17892;52.080;9.006;2022-09-09T16:29:08;24.60;60.70
31263;DHT22;17892;52.080;9.006;2022-09-09T16:31:34;24.50;61.40
31263;DHT22;17892;52.080;9.006;2022-09-09T16:34:00;24.50;61.40
31263;DHT22;17892;52.080;9.006;2022-09-09T16:36:28;24.40;61.10
31263;DHT22;17892;52.080;9.006;2022-09-09T16:38:59;24.40;60.80
31263;DHT22;17892;52.080;9.006;2022-09-09T16:41:27;24.30;60.90
31263;DHT22;17892;52.080;9.006;2022-09-09T16:43:55;24.30;61.10
31263;DHT22;17892;52.080;9.006;2022-09-09T16:46:22;24.20;61.10
31263;DHT22;17892;52.080;9.006;2022-09-09T16:48:50;24.10;61.10
31263;DHT22;17892;52.080;9.006;2022-09-09T16:51:22;24.00;61.30
31263;DHT22;17892;52.080;9.006;2022-09-09T16:53:50;23.80;61.60
31263;DHT22;17892;52.080;9.006;2022-09-09T16:56:19;23.70;61.50
31263;DHT22;17892;52.080;9.006;2022-09-09T16:58:55;23.50;63.00
31263;DHT22;17892;52.080;9.006;2022-09-09T17:01:27;23.20;65.30
31263;DHT22;17892;52.080;9.006;2022-09-09T17:03:55;22.80;64.60
31263;DHT22;17892;52.080;9.006;2022-09-09T17:06:21;22.40;64.20
31263;DHT22;17892;52.080;9.006;2022-09-09T17:08:54;21.80;65.70
31263;DHT22;17892;52.080;9.006;2022-09-09T17:11:23;21.40;68.70
31263;DHT22;17892;52.080;9.006;2022-09-09T17:13:50;20.80;69.80
31263;DHT22;17892;52.080;9.006;2022-09-09T17:16:18;20.40;71.70
31263;DHT22;17892;52.080;9.006;2022-09-09T17:18:47;20.00;72.10
31263;DHT22;17892;52.080;9.006;2022-09-09T17:21:20;19.60;72.20
31263;DHT22;17892;52.080;9.006;2022-09-09T17:23:47;19.30;73.90
31263;DHT22;17892;52.080;9.006;2022-09-09T17:26:18;19.00;74.20
31263;DHT22;17892;52.080;9.006;2022-09-09T17:28:45;18.80;77.60
31263;DHT22;17892;52.080;9.006;2022-09-09T17:31:16;18.60;80.20
31263;DHT22;17892;52.080;9.006;2022-09-09T17:33:46;18.50;80.80
31263;DHT22;17892;52.080;9.006;2022-09-09T17:38:53;18.20;84.70
31263;DHT22;17892;52.080;9.006;2022-09-09T17:41:22;18.10;84.20
31263;DHT22;17892;52.080;9.006;2022-09-09T17:44:06;17.90;84.20
31263;DHT22;17892;52.080;9.006;2022-09-09T17:46:34;17.80;84.20
31263;DHT22;17892;52.080;9.006;2022-09-09T17:49:07;17.70;84.70
31263;DHT22;17892;52.080;9.006;2022-09-09T17:51:35;17.70;85.80
31263;DHT22;17892;52.080;9.006;2022-09-09T17:54:06;17.60;85.00
31263;DHT22;17892;52.080;9.006;2022-09-09T17:56:35;17.50;86.70
31263;DHT22;17892;52.080;9.006;2022-09-09T17:59:03;17.40;86.70
31263;DHT22;17892;52.080;9.006;2022-09-09T18:01:33;17.40;87.30
31263;DHT22;17892;52.080;9.006;2022-09-09T18:04:03;17.30;87.30